Time;durP1;ratioP1;P1;durP2;ratioP2;P2;SDS_P1;SDS_P2;PMS_P1;PMS_P2;Temp;Humidity;BMP_temperature;BMP_pressure;BME280_temperature;BME280_humidity;BME280_pressure;Samples;Min_cycle;Max_cycle;Signal;HPM_P1;HPM_P2
2023/02/27 00:01:35;;;;;;;3.33;3.13;;;-0.10;99.90;;;;;;4994114;28;20198;-49
2023/02/27 00:04:02;;;;;;;4.73;2.70;;;-0.20;99.90;;;;;;4992249;28;20200;-50
2023/02/27 00:06:29;;;;;;;1.93;1.83;;;-0.20;99.90;;;;;;4994015;28;20201;-48
2023/02/27 00:08:56;;;;;;;3.30;3.10;;;-0.20;99.90;;;;;;4992392;28;20288;-47
2023/02/27 00:11:23;;;;;;;2.57;1.13;;;-0.20;99.90;;;;;;4993837;28;20615;-47
2023/02/27 00:13:50;;;;;;;8.47;7.20;;;-0.10;99.90;;;;;;4991661;28;20580;-49
2023/02/27 00:16:19;;;;;;;3.30;3.13;;;-0.20;99.90;;;;;;4993603;28;20584;-50
2023/02/27 00:18:46;;;;;;;3.23;3.03;;;-0.10;99.90;;;;;;4992788;28;20241;-47
2023/02/27 00:21:12;;;;;;;2.87;2.73;;;-0.10;99.90;;;;;;4992310;28;20204;-47
2023/02/27 00:23:39;;;;;;;3.70;3.40;;;-0.20;99.90;;;;;;4993310;28;20196;-49
2023/02/27 00:26:06;;;;;;;1.57;1.47;;;-0.20;99.90;;;;;;4993031;28;20203;-47
2023/02/27 00:28:33;;;;;;;2.37;2.20;;;-0.20;99.90;;;;;;4991795;28;20220;-48
2023/02/27 00:31:00;;;;;;;2.13;1.60;;;-0.20;99.90;;;;;;4985135;28;20251;-47
2023/02/27 00:33:29;;;;;;;2.53;2.43;;;-0.20;99.90;;;;;;4993138;28;20202;-48
2023/02/27 00:35:56;;;;;;;6.00;5.57;;;-0.30;99.90;;;;;;4990757;28;20369;-48
2023/02/27 00:38:23;;;;;;;2.27;2.07;;;-0.40;99.90;;;;;;4993451;28;20215;-47
2023/02/27 00:40:50;;;;;;;3.40;3.30;;;-0.30;99.90;;;;;;4993385;28;20209;-48
2023/02/27 00:43:17;;;;;;;3.57;3.23;;;-0.30;99.90;;;;;;4985461;28;20625;-47
2023/02/27 00:45:44;;;;;;;1.47;1.47;;;-0.20;99.90;;;;;;4990698;28;20201;-48
2023/02/27 00:48:11;;;;;;;3.67;2.73;;;-0.30;99.90;;;;;;4990810;28;20237;-47
2023/02/27 00:50:39;;;;;;;2.37;1.90;;;-0.30;99.90;;;;;;4985038;28;20262;-48
2023/02/27 00:53:06;;;;;;;3.67;3.47;;;-0.20;99.90;;;;;;4992062;28;20205;-49
2023/02/27 00:55:33;;;;;;;2.33;2.10;;;-0.30;99.90;;;;;;4993021;28;20216;-47
2023/02/27 00:58:00;;;;;;;3.93;2.63;;;-0.40;99.90;;;;;;4993033;28;20279;-47
2023/02/27 01:00:27;;;;;;;3.57;3.27;;;-0.30;99.90;;;;;;4991123;28;20201;-47
2023/02/27 01:02:54;;;;;;;1.27;1.27;;;-0.30;99.90;;;;;;4992253;28;20295;-48
2023/02/27 01:05:21;;;;;;;2.00;1.17;;;-0.40;99.90;;;;;;4992696;28;20192;-47
2023/02/27 01:07:50;;;;;;;2.00;1.80;;;-0.30;99.90;;;;;;4992728;28;20226;-48
2023/02/27 01:10:17;;;;;;;1.53;1.53;;;-0.40;99.90;;;;;;4992886;28;20248;-46
2023/02/27 01:12:45;;;;;;;3.20;3.00;;;-0.40;99.90;;;;;;4990581;28;20204;-48
2023/02/27 01:15:13;;;;;;;4.20;1.70;;;-0.40;99.90;;;;;;4991214;28;20266;-47
2023/02/27 01:17:43;;;;;;;2.43;2.33;;;-0.50;99.90;;;;;;4983018;28;20229;-47
2023/02/27 01:20:12;;;;;;;3.00;2.77;;;-0.40;99.90;;;;;;4992834;28;20583;-47
2023/02/27 01:22:41;;;;;;;1.60;1.60;;;-0.40;99.90;;;;;;4992326;28;20226;-48
2023/02/27 01:25:10;;;;;;;1.83;1.83;;;-0.40;99.90;;;;;;4991513;28;20614;-48
2023/02/27 01:27:37;;;;;;;1.90;1.80;;;-0.40;99.90;;;;;;4991569;28;20276;-48
2023/02/27 01:30:05;;;;;;;1.93;1.83;;;-0.40;99.90;;;;;;4991678;28;20248;-47
2023/02/27 01:32:32;;;;;;;1.83;1.73;;;-0.30;99.90;;;;;;4983998;28;20196;-47
2023/02/27 01:34:59;;;;;;;1.20;1.20;;;-0.40;99.90;;;;;;4991655;28;20223;-47
2023/02/27 01:37:26;;;;;;;1.33;1.33;;;-0.40;99.90;;;;;;4987912;28;20200;-49
2023/02/27 01:39:53;;;;;;;1.80;1.70;;;-0.30;99.90;;;;;;4990408;28;20258;-49
2023/02/27 01:42:24;;;;;;;4.77;3.90;;;-0.30;99.90;;;;;;4990878;28;20202;-47
2023/02/27 01:45:28;;;;;;;3.77;3.57;;;-0.40;99.90;;;;;;4992035;28;20198;-47
2023/02/27 01:48:00;;;;;;;3.43;2.43;;;-0.30;99.90;;;;;;4960703;28;20223;-47
2023/02/27 01:50:27;;;;;;;1.43;1.43;;;-0.30;99.90;;;;;;4992383;28;20208;-46
2023/02/27 01:52:57;;;;;;;2.90;1.80;;;-0.30;99.90;;;;;;4990857;28;20196;-47
2023/02/27 01:55:27;;;;;;;1.63;1.53;;;-0.30;99.90;;;;;;4990499;28;20644;-48
2023/02/27 01:57:56;;;;;;;1.10;1.00;;;-0.30;99.90;;;;;;4991884;28;20367;-49
2023/02/27 02:00:23;;;;;;;1.80;1.70;;;-0.40;99.90;;;;;;4989312;28;20269;-47
2023/02/27 02:02:58;;;;;;;2.07;1.97;;;-0.50;99.90;;;;;;4991733;28;20196;-47
2023/02/27 02:05:26;;;;;;;1.40;1.40;;;-0.50;99.90;;;;;;4992379;28;20258;-48
2023/02/27 02:07:53;;;;;;;1.57;1.47;;;-0.40;99.90;;;;;;4991181;28;20276;-48
2023/02/27 02:10:22;;;;;;;1.47;1.47;;;-0.50;99.90;;;;;;4991391;28;20199;-48
2023/02/27 02:12:50;;;;;;;3.47;3.13;;;-0.60;99.90;;;;;;4991124;28;20200;-46
2023/02/27 02:15:19;;;;;;;1.47;1.37;;;-0.60;99.90;;;;;;4988566;28;20251;-49
2023/02/27 02:17:54;;;;;;;2.73;1.80;;;-0.60;99.90;;;;;;4992056;28;20236;-48
2023/02/27 02:20:42;;;;;;;1.23;1.20;;;-0.60;99.90;;;;;;4992984;28;20258;-49
2023/02/27 02:23:36;;;;;;;1.70;1.60;;;-0.60;99.90;;;;;;4988226;28;20205;-49
2023/02/27 02:26:29;;;;;;;1.67;1.67;;;-0.60;99.90;;;;;;5008904;28;20228;-47
2023/02/27 02:29:56;;;;;;;1.50;1.40;;;-0.60;99.90;;;;;;5005691;28;20224;-46
2023/02/27 02:32:58;;;;;;;2.83;1.80;;;-0.70;99.90;;;;;;4905523;29;20205;-45
2023/02/27 02:36:02;;;;;;;2.00;1.83;;;-0.60;99.90;;;;;;4976495;28;20719;-46
2023/02/27 02:38:52;;;;;;;1.40;1.30;;;-0.60;99.90;;;;;;4992439;28;20754;-48
2023/02/27 02:41:28;;;;;;;1.33;1.23;;;-0.60;99.90;;;;;;4986673;28;20616;-47
2023/02/27 02:44:02;;;;;;;1.50;1.40;;;-0.60;99.90;;;;;;4989808;28;20251;-47
2023/02/27 02:46:35;;;;;;;1.37;1.27;;;-0.70;99.90;;;;;;4991375;28;20194;-48
2023/02/27 02:49:10;;;;;;;1.77;1.67;;;-0.70;99.90;;;;;;4987941;28;20225;-47
2023/02/27 02:51:46;;;;;;;3.10;2.90;;;-0.70;99.90;;;;;;4991361;28;20196;-47
2023/02/27 02:54:19;;;;;;;9.70;8.70;;;-0.70;99.90;;;;;;4990700;28;20270;-49
2023/02/27 02:56:51;;;;;;;5.10;4.60;;;-0.70;99.90;;;;;;4991246;28;20220;-47
2023/02/27 02:59:32;;;;;;;3.30;3.03;;;-0.70;99.90;;;;;;4989619;28;20222;-47
2023/02/27 03:02:04;;;;;;;4.80;4.40;;;-0.70;99.90;;;;;;4983700;28;20201;-49
2023/02/27 03:04:35;;;;;;;3.77;2.23;;;-0.60;99.90;;;;;;4991103;28;20196;-48
2023/02/27 03:07:09;;;;;;;7.63;7.13;;;-0.60;99.90;;;;;;4972407;28;20699;-47
2023/02/27 03:09:41;;;;;;;1.80;1.70;;;-0.60;99.90;;;;;;4971924;28;20649;-47
2023/02/27 03:12:12;;;;;;;9.60;8.70;;;-0.60;99.90;;;;;;4981195;28;20253;-47
2023/02/27 03:14:44;;;;;;;3.03;2.83;;;-0.60;99.90;;;;;;4986016;28;20203;-48
2023/02/27 03:17:18;;;;;;;6.50;5.97;;;-0.60;99.90;;;;;;4992742;28;20205;-49
2023/02/27 03:19:49;;;;;;;3.90;3.70;;;-0.60;99.90;;;;;;4983404;23;20298;-49
2023/02/27 03:22:21;;;;;;;2.60;2.40;;;-0.70;99.90;;;;;;4962850;28;20258;-49
2023/02/27 03:24:53;;;;;;;5.73;5.43;;;-0.70;99.90;;;;;;4965541;28;20205;-49
2023/02/27 03:27:21;;;;;;;6.33;5.97;;;-0.70;99.90;;;;;;4956685;28;20259;-48
2023/02/27 03:29:55;;;;;;;5.90;5.43;;;-0.70;99.90;;;;;;4976916;28;20251;-48
2023/02/27 03:32:27;;;;;;;6.80;6.30;;;-0.60;99.90;;;;;;4976807;28;20235;-50
2023/02/27 03:34:54;;;;;;;10.20;9.40;;;-0.70;99.90;;;;;;4974307;28;20263;-48
2023/02/27 03:37:30;;;;;;;4.07;3.00;;;-0.70;99.90;;;;;;4958572;28;20201;-49
2023/02/27 03:40:06;;;;;;;3.03;2.83;;;-0.70;99.90;;;;;;4968539;28;20273;-48
2023/02/27 03:42:38;;;;;;;4.10;3.40;;;-0.70;99.90;;;;;;4967608;28;20283;-50
2023/02/27 03:45:11;;;;;;;5.70;5.37;;;-0.60;99.90;;;;;;4961068;28;20252;-49
2023/02/27 03:47:40;;;;;;;3.67;3.47;;;-0.60;99.90;;;;;;4953726;28;20291;-48
2023/02/27 03:50:09;;;;;;;2.13;1.83;;;-0.60;99.90;;;;;;4961616;28;20203;-49
2023/02/27 03:52:36;;;;;;;1.53;1.43;;;-0.70;99.90;;;;;;4955135;29;20273;-48
2023/02/27 03:55:10;;;;;;;4.93;2.97;;;-0.70;99.90;;;;;;4956899;29;20281;-49
2023/02/27 03:57:38;;;;;;;2.00;1.90;;;-0.70;99.90;;;;;;4962486;28;20265;-49
2023/02/27 04:00:07;;;;;;;4.33;3.93;;;-0.70;99.90;;;;;;4959360;28;20209;-48
2023/02/27 04:02:36;;;;;;;2.73;1.77;;;-0.70;99.90;;;;;;4958143;28;20705;-49
2023/02/27 04:05:04;;;;;;;2.80;1.57;;;-0.70;99.90;;;;;;4954911;29;20206;-49
2023/02/27 04:07:48;;;;;;;1.87;1.70;;;-0.70;99.90;;;;;;4954954;29;20676;-47
2023/02/27 04:10:29;;;;;;;3.57;3.23;;;-0.70;99.90;;;;;;4960818;28;20276;-48
2023/02/27 04:13:18;;;;;;;1.13;1.13;;;-0.80;99.90;;;;;;4958424;28;20227;-49
2023/02/27 04:16:14;;;;;;;1.43;1.43;;;-0.80;99.90;;;;;;4966528;28;20222;-49
2023/02/27 04:18:56;;;;;;;4.90;1.90;;;-0.80;99.90;;;;;;4974943;28;20232;-49
2023/02/27 04:21:30;;;;;;;1.87;1.77;;;-0.80;99.90;;;;;;4969194;28;20202;-49
2023/02/27 04:24:06;;;;;;;1.63;1.53;;;-0.80;99.90;;;;;;4960073;28;20288;-47
2023/02/27 04:26:39;;;;;;;2.20;2.10;;;-0.90;99.90;;;;;;4959521;28;20209;-49
2023/02/27 04:29:09;;;;;;;2.80;2.60;;;-0.80;99.90;;;;;;4958104;28;20275;-49
2023/02/27 04:31:45;;;;;;;2.40;2.00;;;-0.80;99.90;;;;;;4960733;28;20243;-48
2023/02/27 04:34:20;;;;;;;1.57;1.47;;;-0.80;99.90;;;;;;4972140;28;20201;-46
2023/02/27 04:36:54;;;;;;;1.43;1.33;;;-0.80;99.90;;;;;;4961686;28;20271;-47
2023/02/27 04:39:26;;;;;;;3.10;3.00;;;-0.70;99.90;;;;;;4962460;28;20225;-46
2023/02/27 04:41:58;;;;;;;1.80;1.70;;;-0.80;99.90;;;;;;4955300;28;21096;-46
2023/02/27 04:44:27;;;;;;;7.17;6.57;;;-0.80;99.90;;;;;;4961016;28;20209;-47
2023/02/27 04:46:57;;;;;;;10.00;9.00;;;-0.80;99.90;;;;;;4952698;29;20281;-46
2023/02/27 04:49:28;;;;;;;2.63;2.43;;;-0.90;99.90;;;;;;4951482;29;20265;-46
2023/02/27 04:52:01;;;;;;;2.83;2.23;;;-0.80;99.90;;;;;;4944804;28;20220;-47
2023/02/27 04:54:33;;;;;;;2.10;2.00;;;-0.80;99.90;;;;;;4957587;28;20203;-46
2023/02/27 04:57:06;;;;;;;2.10;1.93;;;-0.80;99.90;;;;;;4952194;28;20328;-46
2023/02/27 04:59:38;;;;;;;2.10;2.00;;;-0.80;99.90;;;;;;4953399;28;20223;-46
2023/02/27 05:02:12;;;;;;;2.50;2.40;;;-0.70;99.90;;;;;;4961515;28;20250;-47
2023/02/27 05:04:43;;;;;;;1.90;1.80;;;-0.80;99.90;;;;;;4953856;29;20280;-46
2023/02/27 05:07:16;;;;;;;3.27;2.90;;;-0.80;99.90;;;;;;4958259;28;20296;-47
2023/02/27 05:09:48;;;;;;;16.70;14.70;;;-0.80;99.90;;;;;;4965541;28;20658;-47
2023/02/27 05:12:21;;;;;;;4.53;2.47;;;-0.70;99.90;;;;;;4959647;28;20212;-47
2023/02/27 05:14:52;;;;;;;1.93;1.83;;;-0.70;99.90;;;;;;4952238;28;20213;-48
2023/02/27 05:17:23;;;;;;;2.43;2.27;;;-0.70;99.90;;;;;;4953277;28;20229;-47
2023/02/27 05:19:50;;;;;;;2.30;1.77;;;-0.70;99.90;;;;;;4955410;28;20644;-46
2023/02/27 05:22:26;;;;;;;1.97;1.83;;;-0.60;99.90;;;;;;4954095;29;20207;-47
2023/02/27 05:25:00;;;;;;;3.00;2.80;;;-0.60;99.90;;;;;;4952978;29;20265;-47
2023/02/27 05:27:39;;;;;;;2.00;1.90;;;-0.70;99.90;;;;;;4934924;29;20200;-48
2023/02/27 05:30:12;;;;;;;1.90;1.80;;;-0.80;99.90;;;;;;4955117;28;20205;-47
2023/02/27 05:32:45;;;;;;;2.07;1.87;;;-0.80;99.90;;;;;;4952737;28;20210;-49
2023/02/27 05:35:19;;;;;;;8.03;5.33;;;-0.80;99.90;;;;;;4952603;28;20205;-46
2023/02/27 05:37:51;;;;;;;2.13;2.00;;;-0.70;99.90;;;;;;4962734;28;20208;-47
2023/02/27 05:40:23;;;;;;;2.90;2.60;;;-0.70;99.90;;;;;;4953368;29;20214;-46
2023/02/27 05:42:58;;;;;;;2.73;2.53;;;-0.60;99.90;;;;;;4953586;29;20210;-47
2023/02/27 05:45:30;;;;;;;2.67;2.47;;;-0.60;99.90;;;;;;4954189;29;20205;-47
2023/02/27 05:48:02;;;;;;;3.20;3.00;;;-0.70;99.90;;;;;;4953778;28;20228;-47
2023/02/27 05:50:32;;;;;;;2.10;2.00;;;-0.60;99.90;;;;;;4960196;28;20205;-48
2023/02/27 05:53:03;;;;;;;2.63;2.53;;;-0.70;99.90;;;;;;4957073;28;20272;-47
2023/02/27 05:55:35;;;;;;;3.27;2.93;;;-0.70;99.90;;;;;;4972405;28;20267;-47
2023/02/27 05:58:10;;;;;;;5.20;4.70;;;-0.70;99.90;;;;;;4972327;28;20284;-48
2023/02/27 06:00:41;;;;;;;4.70;2.77;;;-0.70;99.90;;;;;;4972168;28;20303;-48
2023/02/27 06:03:08;;;;;;;3.20;2.47;;;-0.70;99.90;;;;;;4958164;28;20203;-47
2023/02/27 06:05:37;;;;;;;2.83;2.60;;;-0.70;99.90;;;;;;4956117;28;20201;-46
2023/02/27 06:08:04;;;;;;;2.67;2.57;;;-0.60;99.90;;;;;;4959678;28;20223;-48
2023/02/27 06:10:31;;;;;;;4.13;3.87;;;-0.60;99.90;;;;;;4952004;29;20259;-47
2023/02/27 06:12:58;;;;;;;10.63;5.70;;;-0.50;99.90;;;;;;4954268;28;20210;-47
2023/02/27 06:15:27;;;;;;;7.07;3.97;;;-0.50;99.90;;;;;;4959214;28;20202;-47
2023/02/27 06:17:55;;;;;;;5.10;3.40;;;-0.60;99.90;;;;;;4959652;28;20216;-48
2023/02/27 06:20:22;;;;;;;10.70;7.73;;;-0.60;99.90;;;;;;4954179;28;20212;-48
2023/02/27 06:22:49;;;;;;;13.87;6.87;;;-0.60;99.90;;;;;;4960619;28;20214;-47
2023/02/27 06:25:16;;;;;;;9.53;7.47;;;-0.60;99.90;;;;;;4960455;28;20259;-48
2023/02/27 06:27:43;;;;;;;7.60;5.07;;;-0.50;99.90;;;;;;4956545;28;20203;-46
2023/02/27 06:30:11;;;;;;;6.80;5.57;;;-0.50;99.90;;;;;;4965425;28;20260;-46
2023/02/27 06:32:41;;;;;;;6.33;4.37;;;-0.40;99.90;;;;;;4961481;28;20209;-47
2023/02/27 06:35:09;;;;;;;5.77;4.43;;;-0.40;99.90;;;;;;4956180;28;20323;-46
2023/02/27 06:37:40;;;;;;;6.33;5.13;;;-0.30;99.90;;;;;;4947831;28;20707;-47
2023/02/27 06:40:10;;;;;;;3.23;2.93;;;-0.20;99.90;;;;;;4952799;28;20227;-47
2023/02/27 06:42:37;;;;;;;5.73;3.10;;;-0.20;99.90;;;;;;4935602;29;20208;-46
2023/02/27 06:45:05;;;;;;;7.43;6.70;;;-0.10;99.90;;;;;;4940654;28;20294;-48
2023/02/27 06:47:32;;;;;;;10.07;9.00;;;0.10;99.90;;;;;;4961652;28;20244;-47
2023/02/27 06:50:02;;;;;;;6.50;3.57;;;0.20;99.90;;;;;;4961204;28;20231;-45
2023/02/27 06:52:29;;;;;;;3.37;3.10;;;0.30;99.90;;;;;;4962562;28;20976;-47
2023/02/27 06:54:56;;;;;;;10.10;9.07;;;0.40;99.90;;;;;;4955899;28;20675;-47
2023/02/27 06:57:23;;;;;;;11.43;9.30;;;0.60;99.90;;;;;;4955877;29;20277;-47
2023/02/27 06:59:50;;;;;;;12.80;8.80;;;0.90;99.90;;;;;;4958855;28;20224;-47
2023/02/27 07:02:18;;;;;;;7.67;6.20;;;1.20;99.90;;;;;;4969967;28;20197;-47
2023/02/27 07:04:45;;;;;;;8.20;7.47;;;1.40;99.90;;;;;;4964478;28;20688;-47
2023/02/27 07:07:13;;;;;;;7.80;5.03;;;1.70;99.90;;;;;;4969011;28;20202;-47
2023/02/27 07:09:40;;;;;;;3.80;3.50;;;1.80;99.90;;;;;;4964115;28;20632;-48
2023/02/27 07:12:08;;;;;;;6.23;4.60;;;1.90;99.90;;;;;;4962824;28;20210;-46
2023/02/27 07:14:35;;;;;;;3.30;3.00;;;2.00;99.90;;;;;;4957811;28;20735;-48
2023/02/27 07:17:03;;;;;;;11.77;6.80;;;1.90;99.90;;;;;;4965251;28;20300;-46
2023/02/27 07:19:32;;;;;;;4.57;2.63;;;2.00;99.90;;;;;;4961457;28;20242;-47
2023/02/27 07:21:59;;;;;;;10.47;7.83;;;2.00;99.90;;;;;;4964706;28;20650;-46
2023/02/27 07:24:27;;;;;;;3.50;3.30;;;2.00;99.90;;;;;;4955368;28;20264;-47
2023/02/27 07:26:54;;;;;;;6.23;5.07;;;2.10;99.90;;;;;;4960920;28;20262;-46
2023/02/27 07:29:21;;;;;;;4.47;4.17;;;2.20;99.90;;;;;;4955765;28;20272;-48
2023/02/27 07:31:48;;;;;;;10.83;9.20;;;2.40;99.90;;;;;;4958369;28;20213;-47
2023/02/27 07:34:15;;;;;;;8.80;7.33;;;2.60;99.90;;;;;;4966684;28;20289;-48
2023/02/27 07:36:43;;;;;;;4.07;3.87;;;2.70;99.90;;;;;;4971681;28;20286;-47
2023/02/27 07:39:11;;;;;;;10.33;9.33;;;2.60;99.90;;;;;;4972051;28;20242;-47
2023/02/27 07:41:39;;;;;;;6.97;6.23;;;2.60;99.90;;;;;;4963350;28;20280;-46
2023/02/27 07:44:07;;;;;;;4.40;3.30;;;2.60;99.90;;;;;;4962729;28;20205;-46
2023/02/27 07:46:34;;;;;;;7.70;7.00;;;2.50;99.90;;;;;;4953328;28;20200;-47
2023/02/27 07:49:01;;;;;;;7.70;6.90;;;2.70;99.90;;;;;;4953663;28;20222;-47
2023/02/27 07:51:28;;;;;;;12.97;11.53;;;3.10;99.90;;;;;;4957453;28;20203;-47
2023/02/27 07:54:00;;;;;;;6.87;6.03;;;3.50;99.90;;;;;;4961425;28;20196;-47
2023/02/27 07:56:27;;;;;;;7.50;6.80;;;3.60;99.90;;;;;;4962117;28;20222;-46
2023/02/27 07:58:56;;;;;;;5.93;4.83;;;3.70;99.90;;;;;;4962970;28;20308;-46
2023/02/27 08:01:23;;;;;;;5.07;4.60;;;3.50;99.90;;;;;;4955109;28;20423;-46
2023/02/27 08:03:50;;;;;;;6.47;6.07;;;3.70;99.90;;;;;;4953738;28;20310;-45
2023/02/27 08:06:17;;;;;;;4.73;4.33;;;3.50;99.90;;;;;;4951278;28;20198;-46
2023/02/27 08:08:44;;;;;;;8.93;6.03;;;3.60;99.90;;;;;;4954319;28;20299;-45
2023/02/27 08:11:11;;;;;;;3.27;3.07;;;3.90;99.90;;;;;;4954644;29;20211;-45
2023/02/27 08:13:38;;;;;;;5.67;3.90;;;4.20;99.90;;;;;;4954378;29;20500;-46
2023/02/27 08:16:07;;;;;;;10.77;9.67;;;4.30;99.90;;;;;;4946229;29;20223;-47
2023/02/27 08:18:34;;;;;;;6.40;5.90;;;4.40;99.90;;;;;;4943563;29;20235;-45
2023/02/27 08:21:03;;;;;;;9.30;7.70;;;4.10;99.90;;;;;;4954070;28;20211;-46
2023/02/27 08:23:30;;;;;;;10.47;9.27;;;4.10;99.90;;;;;;4951580;29;20211;-47
2023/02/27 08:25:58;;;;;;;5.57;3.43;;;3.80;99.90;;;;;;4956496;28;20280;-46
2023/02/27 08:28:26;;;;;;;8.50;7.73;;;3.70;99.90;;;;;;4965289;28;20218;-46
2023/02/27 08:30:55;;;;;;;22.20;16.30;;;3.70;99.90;;;;;;4948709;28;20232;-46
2023/02/27 08:33:24;;;;;;;5.07;4.67;;;3.60;99.90;;;;;;4959687;28;20269;-46
2023/02/27 08:35:53;;;;;;;14.97;13.57;;;3.80;99.90;;;;;;4961632;28;20207;-47
2023/02/27 08:38:20;;;;;;;7.83;3.97;;;3.70;99.90;;;;;;4954146;29;20435;-46
2023/02/27 08:40:47;;;;;;;16.80;15.20;;;3.70;99.90;;;;;;4954700;29;20199;-46
2023/02/27 08:43:14;;;;;;;12.90;10.80;;;3.70;99.90;;;;;;4953690;29;20261;-46
2023/02/27 08:45:41;;;;;;;7.97;7.17;;;3.90;99.90;;;;;;4953538;29;20206;-46
2023/02/27 08:48:09;;;;;;;4.43;4.03;;;4.10;99.90;;;;;;4954022;29;20231;-47
2023/02/27 08:50:37;;;;;;;7.37;6.67;;;4.10;99.90;;;;;;4952877;28;20207;-45
2023/02/27 08:53:04;;;;;;;3.40;3.20;;;4.20;99.90;;;;;;4953150;28;20207;-48
2023/02/27 08:55:31;;;;;;;6.50;5.90;;;4.20;99.90;;;;;;4952548;29;20289;-46
2023/02/27 08:57:58;;;;;;;3.77;3.47;;;4.20;99.90;;;;;;4952920;28;20223;-46
2023/02/27 09:00:25;;;;;;;3.80;3.60;;;4.20;99.90;;;;;;4952295;29;20206;-46
2023/02/27 09:02:52;;;;;;;3.10;2.87;;;4.50;99.90;;;;;;4964476;28;20816;-46
2023/02/27 09:05:21;;;;;;;9.60;8.73;;;4.70;99.90;;;;;;4953310;29;20310;-46
2023/02/27 09:07:50;;;;;;;11.57;9.93;;;4.70;99.90;;;;;;4956311;28;20212;-46
2023/02/27 09:10:18;;;;;;;6.67;6.07;;;4.90;99.90;;;;;;4953681;28;20582;-46
2023/02/27 09:12:48;;;;;;;2.67;2.47;;;4.90;99.90;;;;;;4953476;29;20211;-46
2023/02/27 09:15:15;;;;;;;9.50;4.83;;;4.70;99.90;;;;;;4936369;29;20263;-46
2023/02/27 09:17:45;;;;;;;3.20;3.00;;;4.70;99.90;;;;;;4951017;28;20225;-46
2023/02/27 09:20:12;;;;;;;3.17;2.90;;;4.60;99.90;;;;;;5003909;23;20233;-46
2023/02/27 09:22:42;;;;;;;4.27;3.97;;;4.60;99.90;;;;;;4972844;28;20226;-47
2023/02/27 09:25:10;;;;;;;3.93;3.57;;;4.60;99.90;;;;;;4972956;28;20569;-48
2023/02/27 09:27:37;;;;;;;3.70;2.97;;;4.50;99.90;;;;;;4979268;28;20198;-48
2023/02/27 09:30:05;;;;;;;5.53;4.03;;;4.40;99.90;;;;;;4980101;28;20226;-48
2023/02/27 09:32:32;;;;;;;4.67;2.70;;;4.20;99.90;;;;;;4988831;28;20205;-48
2023/02/27 09:34:59;;;;;;;2.87;2.67;;;4.00;99.90;;;;;;4976290;28;20206;-46
2023/02/27 09:37:26;;;;;;;4.93;3.20;;;4.10;99.90;;;;;;4968420;28;20222;-48
2023/02/27 09:39:53;;;;;;;3.83;3.53;;;4.10;99.90;;;;;;4971311;28;20291;-46
2023/02/27 09:42:26;;;;;;;2.97;2.63;;;4.20;99.90;;;;;;4970957;28;20252;-48
2023/02/27 09:44:56;;;;;;;2.77;2.57;;;4.30;99.90;;;;;;4972333;28;20213;-46
2023/02/27 09:47:28;;;;;;;2.67;2.57;;;4.20;99.90;;;;;;4972331;28;20258;-47
2023/02/27 09:50:02;;;;;;;2.97;2.77;;;3.90;99.90;;;;;;4975763;28;20227;-47
2023/02/27 09:52:31;;;;;;;2.70;2.47;;;3.90;99.90;;;;;;4974374;28;20220;-49
2023/02/27 09:54:59;;;;;;;3.57;3.27;;;4.20;99.90;;;;;;4952920;29;20684;-46
2023/02/27 09:57:43;;;;;;;3.77;3.63;;;4.10;99.90;;;;;;4953307;29;20222;-48
2023/02/27 10:00:29;;;;;;;4.07;3.73;;;4.00;99.90;;;;;;4958439;28;20606;-47
2023/02/27 10:03:05;;;;;;;2.60;2.33;;;4.20;99.90;;;;;;4983353;28;20663;-51
2023/02/27 10:05:39;;;;;;;2.80;2.67;;;4.30;99.90;;;;;;4992018;28;20193;-46
2023/02/27 10:08:15;;;;;;;2.57;2.43;;;4.20;99.90;;;;;;4991674;28;20217;-49
2023/02/27 10:10:50;;;;;;;4.03;3.83;;;4.10;99.90;;;;;;4985545;28;20213;-47
2023/02/27 10:13:36;;;;;;;5.07;3.40;;;4.10;99.90;;;;;;4970260;28;21972;-48
2023/02/27 10:16:04;;;;;;;7.80;7.20;;;4.40;99.90;;;;;;4970267;28;20206;-47
2023/02/27 10:18:35;;;;;;;3.77;3.57;;;4.60;99.90;;;;;;4983275;28;20224;-47
2023/02/27 10:21:06;;;;;;;5.67;5.27;;;4.70;99.90;;;;;;4974554;28;20213;-48
2023/02/27 10:23:40;;;;;;;3.60;3.30;;;4.90;99.90;;;;;;4974920;28;20202;-47
2023/02/27 10:26:13;;;;;;;2.70;2.50;;;4.70;99.90;;;;;;4988506;28;20530;-46
2023/02/27 10:28:42;;;;;;;2.90;2.70;;;4.60;99.90;;;;;;4980198;28;20222;-47
2023/02/27 10:31:16;;;;;;;4.53;4.17;;;4.20;99.90;;;;;;4974396;28;20201;-47
2023/02/27 10:33:46;;;;;;;7.33;5.57;;;4.30;99.90;;;;;;4981547;28;20630;-47
2023/02/27 10:36:14;;;;;;;5.80;4.93;;;4.30;99.90;;;;;;4968585;28;20206;-48
2023/02/27 10:38:44;;;;;;;2.93;2.53;;;4.30;99.90;;;;;;4981351;28;20234;-48
2023/02/27 10:41:15;;;;;;;2.63;2.43;;;4.00;99.90;;;;;;4973425;28;20206;-48
2023/02/27 10:43:43;;;;;;;3.50;3.13;;;4.00;99.90;;;;;;4981867;28;20641;-47
2023/02/27 10:46:14;;;;;;;1.97;1.97;;;3.90;99.90;;;;;;4982204;28;20210;-48
2023/02/27 10:48:41;;;;;;;2.30;2.00;;;4.10;99.90;;;;;;4976304;28;20275;-48
2023/02/27 10:51:24;;;;;;;4.13;3.30;;;4.10;99.90;;;;;;4979682;28;20201;-47
2023/02/27 10:53:52;;;;;;;199.67;73.90;;;4.00;99.90;;;;;;4977190;28;20719;-47
2023/02/27 10:56:26;;;;;;;3.40;2.93;;;3.90;99.90;;;;;;4978793;28;20289;-47
2023/02/27 10:59:04;;;;;;;2.77;2.57;;;4.00;99.90;;;;;;4975612;28;20705;-48
2023/02/27 11:01:43;;;;;;;3.10;2.83;;;3.80;99.90;;;;;;4979724;28;20683;-46
2023/02/27 11:04:11;;;;;;;2.93;2.73;;;3.70;99.90;;;;;;4994557;28;20235;-47
2023/02/27 11:06:39;;;;;;;5.27;4.40;;;3.70;99.90;;;;;;4975897;28;20202;-47
2023/02/27 11:09:21;;;;;;;2.40;2.30;;;3.60;99.90;;;;;;4979144;28;20268;-48
2023/02/27 11:11:48;;;;;;;4.70;4.40;;;3.80;99.90;;;;;;4976669;28;20202;-46
2023/02/27 11:14:26;;;;;;;3.60;3.33;;;3.70;99.90;;;;;;4975225;28;20212;-48
2023/02/27 11:16:55;;;;;;;2.30;2.20;;;3.90;99.90;;;;;;4974719;28;20798;-47
2023/02/27 11:19:31;;;;;;;2.27;2.07;;;3.90;99.90;;;;;;4982633;28;20692;-46
2023/02/27 11:22:04;;;;;;;2.47;2.37;;;3.80;99.90;;;;;;4977043;28;20255;-47
2023/02/27 11:24:31;;;;;;;4.17;2.43;;;4.00;99.90;;;;;;4977153;28;20201;-48
2023/02/27 11:26:59;;;;;;;4.97;4.20;;;4.20;99.90;;;;;;4975660;28;20205;-47
2023/02/27 11:29:28;;;;;;;3.70;3.37;;;4.00;99.90;;;;;;4971827;28;20301;-48
2023/02/27 11:31:58;;;;;;;7.10;5.03;;;4.20;99.90;;;;;;4972734;28;20210;-47
2023/02/27 11:34:29;;;;;;;2.73;2.53;;;4.30;99.90;;;;;;4970081;28;20268;-48
2023/02/27 11:36:59;;;;;;;4.37;4.07;;;4.40;99.90;;;;;;4972747;28;20205;-47
2023/02/27 11:39:36;;;;;;;5.90;3.30;;;4.50;99.90;;;;;;4991799;28;20237;-47
2023/02/27 11:42:14;;;;;;;2.83;2.63;;;4.60;99.90;;;;;;4982512;28;20206;-47
2023/02/27 11:44:51;;;;;;;3.97;3.67;;;4.20;99.90;;;;;;4987952;28;20199;-47
2023/02/27 11:47:24;;;;;;;2.33;2.17;;;4.20;99.90;;;;;;4973334;28;20203;-46
2023/02/27 11:50:16;;;;;;;2.27;2.17;;;4.10;99.90;;;;;;4993898;28;20223;-46
2023/02/27 11:52:50;;;;;;;2.57;2.37;;;4.20;99.90;;;;;;4981765;28;20212;-48
2023/02/27 11:55:21;;;;;;;4.37;4.00;;;4.10;99.90;;;;;;4986388;28;20202;-46
2023/02/27 11:57:52;;;;;;;4.10;3.80;;;4.20;99.90;;;;;;5002256;28;20229;-48
2023/02/27 12:00:25;;;;;;;5.40;4.90;;;4.10;99.90;;;;;;4990707;28;20230;-47
2023/02/27 12:02:58;;;;;;;3.13;2.97;;;4.20;99.90;;;;;;4981521;28;20566;-47
2023/02/27 12:05:29;;;;;;;2.97;2.77;;;4.00;99.90;;;;;;4988540;28;20341;-47
2023/02/27 12:08:00;;;;;;;3.53;3.23;;;4.10;99.90;;;;;;4982965;28;20206;-48
2023/02/27 12:10:30;;;;;;;3.10;2.90;;;4.10;99.90;;;;;;4991265;28;20280;-47
2023/02/27 12:13:02;;;;;;;2.30;2.20;;;4.20;99.90;;;;;;4974981;28;20215;-46
2023/02/27 12:15:41;;;;;;;4.00;3.53;;;4.00;99.90;;;;;;4973067;28;20237;-48
2023/02/27 12:18:18;;;;;;;3.23;3.03;;;4.00;99.90;;;;;;4975957;28;20211;-47
2023/02/27 12:20:52;;;;;;;4.27;3.83;;;3.70;99.90;;;;;;4974072;28;20210;-48
2023/02/27 12:23:26;;;;;;;3.50;3.30;;;3.60;99.90;;;;;;4979548;28;20201;-48
2023/02/27 12:26:00;;;;;;;2.93;2.77;;;3.50;99.90;;;;;;4985269;28;20208;-48
2023/02/27 12:28:37;;;;;;;3.77;3.50;;;3.50;99.90;;;;;;4993424;28;20227;-46
2023/02/27 12:31:40;;;;;;;2.37;2.20;;;3.80;99.90;;;;;;4993447;28;20208;-48
2023/02/27 12:34:15;;;;;;;3.17;2.70;;;3.80;99.90;;;;;;4978320;28;20229;-48
2023/02/27 12:36:42;;;;;;;2.47;2.27;;;3.80;99.90;;;;;;4983088;28;20189;-47
2023/02/27 12:39:18;;;;;;;6.20;5.00;;;3.80;99.90;;;;;;4985618;28;20233;-47
2023/02/27 12:42:17;;;;;;;2.00;1.90;;;3.90;99.90;;;;;;4974396;28;20213;-47
2023/02/27 12:45:10;;;;;;;2.60;2.40;;;3.80;99.90;;;;;;4981124;28;20209;-47
2023/02/27 12:47:49;;;;;;;2.83;2.63;;;3.90;99.90;;;;;;4973650;28;20783;-48
2023/02/27 12:50:18;;;;;;;2.27;2.10;;;4.00;99.90;;;;;;4972930;28;20226;-49
2023/02/27 12:53:04;;;;;;;3.53;1.90;;;3.90;99.90;;;;;;4980079;28;20268;-47
2023/02/27 12:55:35;;;;;;;2.47;2.20;;;3.80;99.90;;;;;;4980826;28;20272;-47
2023/02/27 12:58:18;;;;;;;2.67;1.80;;;3.60;99.90;;;;;;4973694;28;20704;-47
2023/02/27 13:00:48;;;;;;;2.80;1.90;;;3.50;99.90;;;;;;4972985;28;20288;-48
2023/02/27 13:03:24;;;;;;;2.50;2.33;;;3.60;99.90;;;;;;4972595;28;20722;-47
2023/02/27 13:05:57;;;;;;;2.20;2.10;;;3.50;99.90;;;;;;4980974;28;20201;-48
2023/02/27 13:08:55;;;;;;;2.50;2.40;;;3.30;99.90;;;;;;4973182;28;20712;-48
2023/02/27 13:11:36;;;;;;;1.80;1.70;;;3.30;99.90;;;;;;4979432;28;20289;-47
2023/02/27 13:14:11;;;;;;;1.80;1.70;;;3.10;99.90;;;;;;4974377;28;20631;-48